sensor_id;sensor_type;location;lat;lon;timestamp;pressure;altitude;pressure_sealevel;temperature;humidity
10518;BME280;5307;42.548;22.968;2023-05-11T00:00:23;94005.03;;;10.19;100.00
10518;BME280;5307;42.548;22.968;2023-05-11T00:02:50;94005.72;;;10.23;100.00
10518;BME280;5307;42.548;22.968;2023-05-11T00:05:17;94004.94;;;10.22;100.00
10518;BME280;5307;42.548;22.968;2023-05-11T00:07:44;94005.63;;;10.14;100.00
10518;BME280;5307;42.548;22.968;2023-05-11T00:10:12;94004.81;;;10.26;100.00
10518;BME280;5307;42.548;22.968;2023-05-11T00:12:39;94003.97;;;10.16;100.00
10518;BME280;5307;42.548;22.968;2023-05-11T00:15:06;94002.75;;;10.17;100.00
10518;BME280;5307;42.548;22.968;2023-05-11T00:17:33;94003.31;;;10.25;100.00
10518;BME280;5307;42.548;22.968;2023-05-11T00:20:00;93998.41;;;10.07;100.00
10518;BME280;5307;42.548;22.968;2023-05-11T00:22:27;93995.03;;;10.16;100.00
10518;BME280;5307;42.548;22.968;2023-05-11T00:24:54;93992.38;;;10.25;100.00
10518;BME280;5307;42.548;22.968;2023-05-11T00:27:22;93988.78;;;10.28;100.00
10518;BME280;5307;42.548;22.968;2023-05-11T00:29:49;93990.31;;;10.29;100.00
10518;BME280;5307;42.548;22.968;2023-05-11T00:32:15;93987.69;;;10.25;100.00
10518;BME280;5307;42.548;22.968;2023-05-11T00:34:42;93990.41;;;10.25;100.00
10518;BME280;5307;42.548;22.968;2023-05-11T00:37:09;93982.78;;;10.20;100.00
10518;BME280;5307;42.548;22.968;2023-05-11T00:39:36;93998.06;;;10.30;100.00
10518;BME280;5307;42.548;22.968;2023-05-11T00:42:04;94000.78;;;10.18;100.00
10518;BME280;5307;42.548;22.968;2023-05-11T00:44:33;94003.84;;;10.20;100.00
10518;BME280;5307;42.548;22.968;2023-05-11T00:46:59;94003.19;;;10.16;100.00
10518;BME280;5307;42.548;22.968;2023-05-11T00:49:26;93996.09;;;10.18;100.00
10518;BME280;5307;42.548;22.968;2023-05-11T00:51:53;93992.69;;;10.27;100.00
10518;BME280;5307;42.548;22.968;2023-05-11T00:54:22;93993.41;;;10.05;100.00
10518;BME280;5307;42.548;22.968;2023-05-11T00:56:49;93996.75;;;10.09;100.00
10518;BME280;5307;42.548;22.968;2023-05-11T00:59:16;93993.59;;;10.24;100.00
10518;BME280;5307;42.548;22.968;2023-05-11T01:01:44;93990.75;;;10.15;100.00
10518;BME280;5307;42.548;22.968;2023-05-11T01:04:11;93982.00;;;10.20;100.00
10518;BME280;5307;42.548;22.968;2023-05-11T01:06:44;93989.88;;;10.18;100.00
10518;BME280;5307;42.548;22.968;2023-05-11T01:09:23;93990.72;;;10.27;100.00
10518;BME280;5307;42.548;22.968;2023-05-11T01:12:00;93986.16;;;10.11;100.00
10518;BME280;5307;42.548;22.968;2023-05-11T01:14:33;93983.69;;;10.04;100.00
10518;BME280;5307;42.548;22.968;2023-05-11T01:17:09;93985.84;;;10.09;100.00
10518;BME280;5307;42.548;22.968;2023-05-11T01:19:41;93995.81;;;10.03;100.00
10518;BME280;5307;42.548;22.968;2023-05-11T01:22:17;93995.03;;;10.03;100.00
10518;BME280;5307;42.548;22.968;2023-05-11T01:25:04;93993.53;;;9.89;100.00
10518;BME280;5307;42.548;22.968;2023-05-11T01:27:47;93993.88;;;9.91;100.00
10518;BME280;5307;42.548;22.968;2023-05-11T01:30:27;93999.53;;;9.84;100.00
10518;BME280;5307;42.548;22.968;2023-05-11T01:32:59;93997.94;;;9.74;100.00
10518;BME280;5307;42.548;22.968;2023-05-11T01:35:29;93995.38;;;9.92;100.00
10518;BME280;5307;42.548;22.968;2023-05-11T01:37:58;93998.97;;;10.02;100.00
10518;BME280;5307;42.548;22.968;2023-05-11T01:40:27;94002.53;;;10.11;100.00
10518;BME280;5307;42.548;22.968;2023-05-11T01:43:00;93988.25;;;10.07;100.00
10518;BME280;5307;42.548;22.968;2023-05-11T01:45:31;94009.59;;;9.87;100.00
10518;BME280;5307;42.548;22.968;2023-05-11T01:48:02;94001.75;;;9.76;100.00
10518;BME280;5307;42.548;22.968;2023-05-11T01:50:30;94009.22;;;9.98;100.00
10518;BME280;5307;42.548;22.968;2023-05-11T01:52:59;93999.50;;;10.09;100.00
10518;BME280;5307;42.548;22.968;2023-05-11T01:55:30;94004.94;;;10.09;100.00
10518;BME280;5307;42.548;22.968;2023-05-11T01:57:58;94003.31;;;10.12;100.00
10518;BME280;5307;42.548;22.968;2023-05-11T02:00:26;94003.00;;;9.97;100.00
10518;BME280;5307;42.548;22.968;2023-05-11T02:02:55;93995.06;;;9.90;100.00
10518;BME280;5307;42.548;22.968;2023-05-11T02:05:23;93995.50;;;9.89;100.00
10518;BME280;5307;42.548;22.968;2023-05-11T02:07:53;93993.75;;;9.95;100.00
10518;BME280;5307;42.548;22.968;2023-05-11T02:10:24;93998.22;;;10.01;100.00
10518;BME280;5307;42.548;22.968;2023-05-11T02:12:52;93985.66;;;10.04;100.00
10518;BME280;5307;42.548;22.968;2023-05-11T02:15:20;93989.94;;;9.92;100.00
10518;BME280;5307;42.548;22.968;2023-05-11T02:17:48;93989.19;;;9.79;100.00
10518;BME280;5307;42.548;22.968;2023-05-11T02:20:18;93999.84;;;9.99;100.00
10518;BME280;5307;42.548;22.968;2023-05-11T02:22:46;93993.53;;;10.02;100.00
10518;BME280;5307;42.548;22.968;2023-05-11T02:25:14;93980.97;;;10.04;100.00
10518;BME280;5307;42.548;22.968;2023-05-11T02:27:42;93991.47;;;9.93;100.00
10518;BME280;5307;42.548;22.968;2023-05-11T02:30:09;93996.34;;;9.98;100.00
10518;BME280;5307;42.548;22.968;2023-05-11T02:32:41;93985.56;;;9.95;100.00
10518;BME280;5307;42.548;22.968;2023-05-11T02:35:14;93993.53;;;9.89;100.00
10518;BME280;5307;42.548;22.968;2023-05-11T02:37:45;93987.19;;;10.05;100.00
10518;BME280;5307;42.548;22.968;2023-05-11T02:40:15;93988.25;;;10.07;100.00
10518;BME280;5307;42.548;22.968;2023-05-11T02:42:44;93994.72;;;10.01;100.00
10518;BME280;5307;42.548;22.968;2023-05-11T02:45:14;93988.84;;;9.90;100.00
10518;BME280;5307;42.548;22.968;2023-05-11T02:47:46;93978.38;;;9.88;100.00
10518;BME280;5307;42.548;22.968;2023-05-11T02:50:14;93996.03;;;9.96;100.00
10518;BME280;5307;42.548;22.968;2023-05-11T02:52:45;93985.34;;;9.89;100.00
10518;BME280;5307;42.548;22.968;2023-05-11T02:55:14;93980.69;;;9.77;100.00
10518;BME280;5307;42.548;22.968;2023-05-11T02:57:41;93988.97;;;9.86;100.00
10518;BME280;5307;42.548;22.968;2023-05-11T03:00:10;93986.78;;;9.81;100.00
10518;BME280;5307;42.548;22.968;2023-05-11T03:02:36;93988.31;;;9.69;100.00
10518;BME280;5307;42.548;22.968;2023-05-11T03:05:04;93983.59;;;9.95;100.00
10518;BME280;5307;42.548;22.968;2023-05-11T03:07:31;93983.72;;;9.92;100.00
10518;BME280;5307;42.548;22.968;2023-05-11T03:10:00;93988.09;;;9.89;100.00
10518;BME280;5307;42.548;22.968;2023-05-11T03:12:28;93986.25;;;9.86;100.00
10518;BME280;5307;42.548;22.968;2023-05-11T03:14:57;93996.72;;;9.75;100.00
10518;BME280;5307;42.548;22.968;2023-05-11T03:17:25;93997.69;;;9.68;100.00
10518;BME280;5307;42.548;22.968;2023-05-11T03:19:53;93999.34;;;9.66;100.00
10518;BME280;5307;42.548;22.968;2023-05-11T03:22:21;93995.84;;;9.78;100.00
10518;BME280;5307;42.548;22.968;2023-05-11T03:24:48;93984.94;;;9.78;100.00
10518;BME280;5307;42.548;22.968;2023-05-11T03:27:17;94002.19;;;9.75;100.00
10518;BME280;5307;42.548;22.968;2023-05-11T03:29:46;93994.66;;;9.66;100.00
10518;BME280;5307;42.548;22.968;2023-05-11T03:32:14;93996.28;;;9.76;100.00
10518;BME280;5307;42.548;22.968;2023-05-11T03:34:41;93991.81;;;9.70;100.00
10518;BME280;5307;42.548;22.968;2023-05-11T03:37:09;93994.97;;;9.68;100.00
10518;BME280;5307;42.548;22.968;2023-05-11T03:39:38;93991.91;;;9.79;100.00
10518;BME280;5307;42.548;22.968;2023-05-11T03:42:07;93987.22;;;9.67;100.00
10518;BME280;5307;42.548;22.968;2023-05-11T03:44:37;94001.66;;;9.29;100.00
10518;BME280;5307;42.548;22.968;2023-05-11T03:47:05;94001.09;;;9.34;100.00
10518;BME280;5307;42.548;22.968;2023-05-11T03:49:35;94000.03;;;9.57;100.00
10518;BME280;5307;42.548;22.968;2023-05-11T03:52:03;93998.59;;;9.52;100.00
10518;BME280;5307;42.548;22.968;2023-05-11T03:54:31;93994.75;;;9.37;100.00
10518;BME280;5307;42.548;22.968;2023-05-11T03:56:58;94002.81;;;9.41;100.00
10518;BME280;5307;42.548;22.968;2023-05-11T03:59:24;94006.00;;;9.52;100.00
10518;BME280;5307;42.548;22.968;2023-05-11T04:01:53;94006.75;;;9.52;100.00
10518;BME280;5307;42.548;22.968;2023-05-11T04:04:26;94007.97;;;9.51;100.00
10518;BME280;5307;42.548;22.968;2023-05-11T04:06:54;94017.00;;;9.36;100.00
10518;BME280;5307;42.548;22.968;2023-05-11T04:09:20;94013.97;;;9.46;100.00
10518;BME280;5307;42.548;22.968;2023-05-11T04:11:49;94011.22;;;9.34;100.00
10518;BME280;5307;42.548;22.968;2023-05-11T04:14:16;94011.56;;;9.48;100.00
10518;BME280;5307;42.548;22.968;2023-05-11T04:16:43;94010.16;;;9.44;100.00
10518;BME280;5307;42.548;22.968;2023-05-11T04:19:19;94019.63;;;9.39;100.00
10518;BME280;5307;42.548;22.968;2023-05-11T04:21:45;94017.91;;;9.45;100.00
10518;BME280;5307;42.548;22.968;2023-05-11T04:24:12;94026.72;;;9.49;100.00
10518;BME280;5307;42.548;22.968;2023-05-11T04:26:39;94024.41;;;9.35;100.00
10518;BME280;5307;42.548;22.968;2023-05-11T04:29:06;94030.84;;;9.41;100.00
10518;BME280;5307;42.548;22.968;2023-05-11T04:31:33;94021.59;;;9.51;100.00
10518;BME280;5307;42.548;22.968;2023-05-11T04:33:59;94026.28;;;9.51;100.00
10518;BME280;5307;42.548;22.968;2023-05-11T04:36:28;94035.78;;;9.59;100.00
10518;BME280;5307;42.548;22.968;2023-05-11T04:38:54;94034.03;;;9.52;100.00
10518;BME280;5307;42.548;22.968;2023-05-11T04:41:21;94038.06;;;9.48;100.00
10518;BME280;5307;42.548;22.968;2023-05-11T04:43:48;94028.56;;;9.52;100.00
10518;BME280;5307;42.548;22.968;2023-05-11T04:46:15;94041.00;;;9.41;100.00
10518;BME280;5307;42.548;22.968;2023-05-11T04:48:42;94044.59;;;9.50;100.00
10518;BME280;5307;42.548;22.968;2023-05-11T04:51:08;94034.66;;;9.57;100.00
10518;BME280;5307;42.548;22.968;2023-05-11T04:53:37;94043.19;;;9.59;100.00
10518;BME280;5307;42.548;22.968;2023-05-11T04:56:04;94040.03;;;9.60;100.00
10518;BME280;5307;42.548;22.968;2023-05-11T04:58:30;94046.69;;;9.59;100.00
10518;BME280;5307;42.548;22.968;2023-05-11T05:00:57;94040.81;;;9.61;100.00
10518;BME280;5307;42.548;22.968;2023-05-11T05:03:25;94045.13;;;9.71;100.00
10518;BME280;5307;42.548;22.968;2023-05-11T05:05:52;94051.03;;;9.57;100.00
10518;BME280;5307;42.548;22.968;2023-05-11T05:08:19;94049.63;;;9.65;100.00
10518;BME280;5307;42.548;22.968;2023-05-11T05:10:47;94049.63;;;9.65;100.00
10518;BME280;5307;42.548;22.968;2023-05-11T05:13:14;94047.66;;;9.65;100.00
10518;BME280;5307;42.548;22.968;2023-05-11T05:15:42;94054.00;;;9.62;100.00
10518;BME280;5307;42.548;22.968;2023-05-11T05:18:08;94045.81;;;9.49;100.00
10518;BME280;5307;42.548;22.968;2023-05-11T05:20:35;94051.03;;;9.57;100.00
10518;BME280;5307;42.548;22.968;2023-05-11T05:23:02;94050.06;;;9.50;100.00
10518;BME280;5307;42.548;22.968;2023-05-11T05:25:29;94054.00;;;9.62;100.00
10518;BME280;5307;42.548;22.968;2023-05-11T05:27:57;94056.56;;;9.40;100.00
10518;BME280;5307;42.548;22.968;2023-05-11T05:30:24;94063.22;;;9.39;100.00
10518;BME280;5307;42.548;22.968;2023-05-11T05:32:50;94061.53;;;9.58;100.00
10518;BME280;5307;42.548;22.968;2023-05-11T05:35:17;94063.50;;;9.58;100.00
10518;BME280;5307;42.548;22.968;2023-05-11T05:37:44;94061.16;;;9.56;100.00
10518;BME280;5307;42.548;22.968;2023-05-11T05:40:11;94071.66;;;9.70;100.00
10518;BME280;5307;42.548;22.968;2023-05-11T05:42:38;94076.13;;;9.64;100.00
10518;BME280;5307;42.548;22.968;2023-05-11T05:45:08;94075.81;;;9.62;100.00
10518;BME280;5307;42.548;22.968;2023-05-11T05:47:35;94069.78;;;9.55;100.00
10518;BME280;5307;42.548;22.968;2023-05-11T05:50:01;94069.91;;;9.51;100.00
10518;BME280;5307;42.548;22.968;2023-05-11T05:52:29;94066.63;;;9.56;100.00
10518;BME280;5307;42.548;22.968;2023-05-11T05:54:55;94072.00;;;9.60;100.00
10518;BME280;5307;42.548;22.968;2023-05-11T05:57:22;94070.03;;;9.73;100.00
10518;BME280;5307;42.548;22.968;2023-05-11T05:59:49;94067.19;;;9.64;100.00
10518;BME280;5307;42.548;22.968;2023-05-11T06:02:17;94073.09;;;9.75;100.00
10518;BME280;5307;42.548;22.968;2023-05-11T06:04:44;94074.59;;;9.63;100.00
10518;BME280;5307;42.548;22.968;2023-05-11T06:07:12;94075.56;;;9.57;100.00
10518;BME280;5307;42.548;22.968;2023-05-11T06:09:39;94085.63;;;9.72;100.00
10518;BME280;5307;42.548;22.968;2023-05-11T06:12:06;94084.44;;;9.73;100.00
10518;BME280;5307;42.548;22.968;2023-05-11T06:14:34;94085.38;;;9.54;100.00
10518;BME280;5307;42.548;22.968;2023-05-11T06:17:01;94073.28;;;9.68;100.00
10518;BME280;5307;42.548;22.968;2023-05-11T06:19:29;94091.41;;;9.74;100.00
10518;BME280;5307;42.548;22.968;2023-05-11T06:21:56;94093.69;;;9.63;100.00
10518;BME280;5307;42.548;22.968;2023-05-11T06:24:24;94089.56;;;9.59;100.00
10518;BME280;5307;42.548;22.968;2023-05-11T06:26:50;94095.97;;;9.65;100.00
10518;BME280;5307;42.548;22.968;2023-05-11T06:29:17;94094.56;;;9.60;100.00
10518;BME280;5307;42.548;22.968;2023-05-11T06:31:46;94096.53;;;9.60;100.00
10518;BME280;5307;42.548;22.968;2023-05-11T06:34:17;94092.81;;;9.53;100.00
10518;BME280;5307;42.548;22.968;2023-05-11T06:36:46;94097.72;;;9.59;100.00
10518;BME280;5307;42.548;22.968;2023-05-11T06:39:13;94096.88;;;9.74;100.00
10518;BME280;5307;42.548;22.968;2023-05-11T06:41:40;94098.91;;;9.70;100.00
10518;BME280;5307;42.548;22.968;2023-05-11T06:44:06;94095.34;;;9.73;100.00
10518;BME280;5307;42.548;22.968;2023-05-11T06:46:34;94088.25;;;9.76;100.00
10518;BME280;5307;42.548;22.968;2023-05-11T06:49:01;94095.78;;;9.72;100.00
10518;BME280;5307;42.548;22.968;2023-05-11T06:51:27;94095.22;;;9.77;100.00
10518;BME280;5307;42.548;22.968;2023-05-11T06:53:56;94097.63;;;9.75;100.00
10518;BME280;5307;42.548;22.968;2023-05-11T06:56:23;94092.63;;;9.86;100.00
10518;BME280;5307;42.548;22.968;2023-05-11T06:58:49;94094.03;;;9.78;100.00
10518;BME280;5307;42.548;22.968;2023-05-11T07:01:16;94100.56;;;9.68;100.00
10518;BME280;5307;42.548;22.968;2023-05-11T07:03:43;94083.66;;;9.73;100.00
10518;BME280;5307;42.548;22.968;2023-05-11T07:06:12;94095.09;;;9.68;100.00
10518;BME280;5307;42.548;22.968;2023-05-11T07:08:38;94098.72;;;9.77;100.00
10518;BME280;5307;42.548;22.968;2023-05-11T07:11:07;94106.16;;;9.90;100.00
10518;BME280;5307;42.548;22.968;2023-05-11T07:29:41;94095.69;;;10.01;100.00
10518;BME280;5307;42.548;22.968;2023-05-11T07:32:09;94090.53;;;10.03;100.00
10518;BME280;5307;42.548;22.968;2023-05-11T07:34:36;94088.34;;;9.98;100.00
10518;BME280;5307;42.548;22.968;2023-05-11T07:37:03;94094.34;;;10.05;100.00
10518;BME280;5307;42.548;22.968;2023-05-11T07:39:30;94093.03;;;10.10;100.00
10518;BME280;5307;42.548;22.968;2023-05-11T07:41:57;94097.72;;;10.09;100.00
10518;BME280;5307;42.548;22.968;2023-05-11T07:44:24;94097.09;;;10.05;100.00
10518;BME280;5307;42.548;22.968;2023-05-11T07:46:52;94104.06;;;9.81;100.00
10518;BME280;5307;42.548;22.968;2023-05-11T07:49:19;94104.94;;;10.03;100.00
10518;BME280;5307;42.548;22.968;2023-05-11T07:51:46;94107.78;;;9.74;100.00
10518;BME280;5307;42.548;22.968;2023-05-11T07:54:13;94108.63;;;9.84;100.00
10518;BME280;5307;42.548;22.968;2023-05-11T07:56:39;94104.50;;;10.05;100.00
10518;BME280;5307;42.548;22.968;2023-05-11T07:59:06;94102.75;;;10.24;100.00
10518;BME280;5307;42.548;22.968;2023-05-11T08:01:33;94109.06;;;10.21;100.00
10518;BME280;5307;42.548;22.968;2023-05-11T08:04:01;94101.03;;;10.30;100.00
10518;BME280;5307;42.548;22.968;2023-05-11T08:06:28;94112.38;;;10.28;100.00
10518;BME280;5307;42.548;22.968;2023-05-11T08:08:55;94109.53;;;10.45;100.00
10518;BME280;5307;42.548;22.968;2023-05-11T08:11:22;94110.94;;;10.24;100.00
10518;BME280;5307;42.548;22.968;2023-05-11T08:13:49;94105.28;;;10.31;100.00
10518;BME280;5307;42.548;22.968;2023-05-11T08:16:16;94106.25;;;10.37;100.00
10518;BME280;5307;42.548;22.968;2023-05-11T08:18:42;94104.47;;;10.56;100.00
10518;BME280;5307;42.548;22.968;2023-05-11T08:21:11;94103.03;;;10.51;100.00
10518;BME280;5307;42.548;22.968;2023-05-11T08:23:37;94108.81;;;10.53;100.00
10518;BME280;5307;42.548;22.968;2023-05-11T08:26:04;94109.94;;;10.56;99.86
10518;BME280;5307;42.548;22.968;2023-05-11T08:28:31;94114.22;;;10.79;100.00
10518;BME280;5307;42.548;22.968;2023-05-11T08:30:59;94105.44;;;10.62;99.36
10518;BME280;5307;42.548;22.968;2023-05-11T08:33:26;94097.38;;;10.46;97.08
10518;BME280;5307;42.548;22.968;2023-05-11T08:35:53;94107.72;;;10.63;96.55
10518;BME280;5307;42.548;22.968;2023-05-11T08:38:21;94102.06;;;10.58;95.77
10518;BME280;5307;42.548;22.968;2023-05-11T08:40:49;94095.09;;;10.44;94.62
10518;BME280;5307;42.548;22.968;2023-05-11T08:43:17;94093.44;;;10.47;95.25
10518;BME280;5307;42.548;22.968;2023-05-11T08:45:45;94094.16;;;10.73;94.32
10518;BME280;5307;42.548;22.968;2023-05-11T08:48:13;94094.13;;;11.07;93.42
10518;BME280;5307;42.548;22.968;2023-05-11T08:50:43;94077.78;;;11.16;94.49
10518;BME280;5307;42.548;22.968;2023-05-11T08:53:10;94086.78;;;11.48;94.38
10518;BME280;5307;42.548;22.968;2023-05-11T08:55:38;94089.22;;;11.46;93.36
10518;BME280;5307;42.548;22.968;2023-05-11T08:58:06;94076.25;;;11.68;92.14
10518;BME280;5307;42.548;22.968;2023-05-11T09:00:34;94084.56;;;11.12;91.70
10518;BME280;5307;42.548;22.968;2023-05-11T09:03:02;94073.47;;;11.28;91.29
10518;BME280;5307;42.548;22.968;2023-05-11T09:05:30;94075.75;;;11.29;90.88
10518;BME280;5307;42.548;22.968;2023-05-11T09:08:00;94074.88;;;11.64;91.64
10518;BME280;5307;42.548;22.968;2023-05-11T09:10:27;94079.81;;;11.47;89.40
10518;BME280;5307;42.548;22.968;2023-05-11T09:12:55;94078.28;;;11.24;90.24
10518;BME280;5307;42.548;22.968;2023-05-11T09:15:22;94070.69;;;11.50;89.99
10518;BME280;5307;42.548;22.968;2023-05-11T09:17:49;94081.47;;;11.22;88.34
10518;BME280;5307;42.548;22.968;2023-05-11T09:20:27;94074.34;;;11.03;89.64
10518;BME280;5307;42.548;22.968;2023-05-11T09:22:54;94077.59;;;11.33;90.34
10518;BME280;5307;42.548;22.968;2023-05-11T09:25:22;94069.78;;;11.22;89.15
10518;BME280;5307;42.548;22.968;2023-05-11T09:27:49;94065.75;;;11.36;88.46
10518;BME280;5307;42.548;22.968;2023-05-11T09:30:19;94059.06;;;11.37;88.53
10518;BME280;5307;42.548;22.968;2023-05-11T09:32:47;94050.75;;;11.71;88.52
10518;BME280;5307;42.548;22.968;2023-05-11T09:35:19;94048.78;;;12.03;88.16
10518;BME280;5307;42.548;22.968;2023-05-11T09:37:56;94041.97;;;12.16;87.47
10518;BME280;5307;42.548;22.968;2023-05-11T09:40:23;94044.22;;;12.00;86.65
10518;BME280;5307;42.548;22.968;2023-05-11T09:42:50;94048.16;;;11.99;85.02
10518;BME280;5307;42.548;22.968;2023-05-11T09:45:39;94041.44;;;11.91;85.16
10518;BME280;5307;42.548;22.968;2023-05-11T09:48:12;94035.44;;;12.23;85.34
10518;BME280;5307;42.548;22.968;2023-05-11T09:50:40;94040.91;;;12.14;83.86
10518;BME280;5307;42.548;22.968;2023-05-11T09:53:07;94029.75;;;12.08;86.61
10518;BME280;5307;42.548;22.968;2023-05-11T09:55:34;94030.72;;;12.24;84.42
10518;BME280;5307;42.548;22.968;2023-05-11T09:58:01;94023.41;;;12.21;84.84
10518;BME280;5307;42.548;22.968;2023-05-11T10:00:28;94026.13;;;12.02;84.68
10518;BME280;5307;42.548;22.968;2023-05-11T10:03:01;94026.66;;;12.46;86.18
10518;BME280;5307;42.548;22.968;2023-05-11T10:05:29;94014.75;;;12.13;83.64
10518;BME280;5307;42.548;22.968;2023-05-11T10:07:57;94015.03;;;12.15;83.39
10518;BME280;5307;42.548;22.968;2023-05-11T10:10:26;94023.81;;;12.01;83.34
10518;BME280;5307;42.548;22.968;2023-05-11T10:12:54;94016.63;;;12.43;84.99
10518;BME280;5307;42.548;22.968;2023-05-11T10:15:22;94012.94;;;12.37;83.75
10518;BME280;5307;42.548;22.968;2023-05-11T10:17:53;94018.69;;;12.21;83.62
10518;BME280;5307;42.548;22.968;2023-05-11T10:20:21;94018.56;;;12.34;84.14
10518;BME280;5307;42.548;22.968;2023-05-11T10:22:50;94016.13;;;12.36;82.08
10518;BME280;5307;42.548;22.968;2023-05-11T10:25:20;94007.78;;;12.39;82.81
10518;BME280;5307;42.548;22.968;2023-05-11T10:27:47;94010.97;;;12.47;83.79
10518;BME280;5307;42.548;22.968;2023-05-11T10:30:14;93993.00;;;12.64;82.54
10518;BME280;5307;42.548;22.968;2023-05-11T10:32:43;94005.97;;;12.55;80.50
10518;BME280;5307;42.548;22.968;2023-05-11T10:35:11;94009.63;;;12.42;80.61
10518;BME280;5307;42.548;22.968;2023-05-11T10:37:39;94004.16;;;12.70;81.29
10518;BME280;5307;42.548;22.968;2023-05-11T10:40:08;94010.84;;;12.69;82.45
10518;BME280;5307;42.548;22.968;2023-05-11T10:42:56;94014.19;;;12.45;81.62
10518;BME280;5307;42.548;22.968;2023-05-11T10:45:28;94016.19;;;11.86;81.65
10518;BME280;5307;42.548;22.968;2023-05-11T10:51:26;94013.84;;;12.53;81.95
10518;BME280;5307;42.548;22.968;2023-05-11T10:54:06;94018.28;;;12.41;83.28
10518;BME280;5307;42.548;22.968;2023-05-11T10:56:48;94007.91;;;12.27;81.63
10518;BME280;5307;42.548;22.968;2023-05-11T10:59:28;94011.41;;;12.36;81.79
10518;BME280;5307;42.548;22.968;2023-05-11T11:02:01;94006.72;;;12.55;82.41
10518;BME280;5307;42.548;22.968;2023-05-11T11:04:41;94004.44;;;12.54;82.77
10518;BME280;5307;42.548;22.968;2023-05-11T11:07:08;94003.81;;;12.49;82.58
10518;BME280;5307;42.548;22.968;2023-05-11T11:09:56;93999.25;;;12.46;82.28
10518;BME280;5307;42.548;22.968;2023-05-11T11:12:24;94011.41;;;12.36;80.78
10518;BME280;5307;42.548;22.968;2023-05-11T11:14:53;94006.72;;;12.55;81.41
10518;BME280;5307;42.548;22.968;2023-05-11T11:17:21;94007.75;;;12.30;81.89
10518;BME280;5307;42.548;22.968;2023-05-11T11:19:49;93996.38;;;12.41;82.46
10518;BME280;5307;42.548;22.968;2023-05-11T11:22:43;94003.81;;;12.31;83.92
10518;BME280;5307;42.548;22.968;2023-05-11T11:25:14;94001.97;;;12.19;85.07
10518;BME280;5307;42.548;22.968;2023-05-11T11:27:57;94000.03;;;12.47;86.10
10518;BME280;5307;42.548;22.968;2023-05-11T11:30:25;94006.25;;;12.29;86.30
10518;BME280;5307;42.548;22.968;2023-05-11T11:32:54;94004.13;;;12.33;85.62
10518;BME280;5307;42.548;22.968;2023-05-11T11:35:43;94007.31;;;12.50;86.05
10518;BME280;5307;42.548;22.968;2023-05-11T11:38:12;93996.22;;;12.54;85.21
10518;BME280;5307;42.548;22.968;2023-05-11T11:40:41;93993.16;;;12.79;84.40
10518;BME280;5307;42.548;22.968;2023-05-11T11:43:12;93997.75;;;12.55;84.66
10518;BME280;5307;42.548;22.968;2023-05-11T11:45:50;93991.47;;;12.91;83.81
10518;BME280;5307;42.548;22.968;2023-05-11T11:48:21;93987.63;;;13.16;83.24
10518;BME280;5307;42.548;22.968;2023-05-11T11:51:00;93996.00;;;13.30;82.50
10518;BME280;5307;42.548;22.968;2023-05-11T11:53:56;93989.78;;;13.30;82.87
10518;BME280;5307;42.548;22.968;2023-05-11T11:56:39;93995.91;;;12.79;82.14
10518;BME280;5307;42.548;22.968;2023-05-11T11:59:06;93995.25;;;13.21;82.58
10518;BME280;5307;42.548;22.968;2023-05-11T12:01:37;93996.19;;;12.90;83.06
10518;BME280;5307;42.548;22.968;2023-05-11T12:04:27;93993.94;;;12.89;83.41
10518;BME280;5307;42.548;22.968;2023-05-11T12:06:57;93981.25;;;13.28;82.79
10518;BME280;5307;42.548;22.968;2023-05-11T12:09:25;93981.84;;;13.23;82.02
10518;BME280;5307;42.548;22.968;2023-05-11T12:11:54;93981.53;;;13.39;82.64
10518;BME280;5307;42.548;22.968;2023-05-11T12:14:22;93962.47;;;13.35;81.81
10518;BME280;5307;42.548;22.968;2023-05-11T12:16:59;93969.38;;;13.22;81.55
10518;BME280;5307;42.548;22.968;2023-05-11T12:19:26;93966.88;;;13.42;82.56
10518;BME280;5307;42.548;22.968;2023-05-11T12:21:53;93969.75;;;13.48;81.51
10518;BME280;5307;42.548;22.968;2023-05-11T12:24:20;93967.47;;;13.46;81.17
10518;BME280;5307;42.548;22.968;2023-05-11T12:26:47;93969.84;;;12.93;79.76
10518;BME280;5307;42.548;22.968;2023-05-11T12:29:15;93961.88;;;13.31;79.84
10518;BME280;5307;42.548;22.968;2023-05-11T12:31:44;93960.75;;;13.47;79.50
10518;BME280;5307;42.548;22.968;2023-05-11T12:34:13;93965.66;;;13.34;79.24
10518;BME280;5307;42.548;22.968;2023-05-11T12:36:41;93958.34;;;13.40;79.25
10518;BME280;5307;42.548;22.968;2023-05-11T12:39:15;93952.09;;;13.73;80.17
10518;BME280;5307;42.548;22.968;2023-05-11T12:41:44;93949.31;;;14.30;81.78
10518;BME280;5307;42.548;22.968;2023-05-11T12:44:11;93949.78;;;13.47;78.01
10518;BME280;5307;42.548;22.968;2023-05-11T12:46:39;93940.38;;;13.72;77.68
10518;BME280;5307;42.548;22.968;2023-05-11T12:49:06;93944.75;;;13.79;78.47
10518;BME280;5307;42.548;22.968;2023-05-11T12:51:47;93948.81;;;13.59;76.70
10518;BME280;5307;42.548;22.968;2023-05-11T12:54:29;93939.97;;;13.88;77.16
10518;BME280;5307;42.548;22.968;2023-05-11T12:56:56;93931.81;;;14.03;79.60
10518;BME280;5307;42.548;22.968;2023-05-11T12:59:25;93925.31;;;14.15;77.82
10518;BME280;5307;42.548;22.968;2023-05-11T13:01:53;93936.00;;;14.13;77.98
10518;BME280;5307;42.548;22.968;2023-05-11T13:04:28;93927.00;;;13.89;76.30
10518;BME280;5307;42.548;22.968;2023-05-11T13:06:55;93925.72;;;14.47;80.29
10518;BME280;5307;42.548;22.968;2023-05-11T13:09:23;93927.72;;;14.22;77.16
10518;BME280;5307;42.548;22.968;2023-05-11T13:12:12;93921.06;;;14.14;78.44
10518;BME280;5307;42.548;22.968;2023-05-11T13:14:40;93921.00;;;14.00;77.66
10518;BME280;5307;42.548;22.968;2023-05-11T13:17:08;93918.06;;;14.27;78.26
10518;BME280;5307;42.548;22.968;2023-05-11T13:19:35;93918.88;;;14.18;77.16
10518;BME280;5307;42.548;22.968;2023-05-11T13:22:04;93912.88;;;14.05;76.84
10518;BME280;5307;42.548;22.968;2023-05-11T13:24:31;93914.47;;;13.40;76.31
10518;BME280;5307;42.548;22.968;2023-05-11T13:26:58;93916.25;;;13.52;77.46